createdAt,value
2022-08-05T00:00:17.271Z,21.81
2022-08-05T00:02:51.525Z,21.74
2022-08-05T00:06:02.699Z,21.72
2022-08-05T00:08:32.603Z,21.59
2022-08-05T00:11:00.215Z,21.63
2022-08-05T00:13:38.082Z,21.63
2022-08-05T00:16:09.612Z,21.67
2022-08-05T00:18:42.088Z,21.63
2022-08-05T00:21:10.281Z,21.56
2022-08-05T00:23:46.267Z,21.46
2022-08-05T00:26:21.991Z,21.37
2022-08-05T00:28:50.469Z,21.42
2022-08-05T00:31:53.064Z,21.49
2022-08-05T00:34:53.258Z,21.45
2022-08-05T00:37:11.071Z,21.42
2022-08-05T00:39:44.282Z,21.40
2022-08-05T00:42:33.106Z,21.21
2022-08-05T00:45:01.038Z,21.08
2022-08-05T00:47:53.160Z,21.09
2022-08-05T00:50:16.606Z,21.15
2022-08-05T00:52:45.521Z,21.11
2022-08-05T00:55:15.972Z,21.08
2022-08-05T00:57:58.720Z,21.06
2022-08-05T01:00:27.937Z,21.01
2022-08-05T01:02:56.104Z,20.85
2022-08-05T01:05:24.365Z,20.60
2022-08-05T01:08:40.188Z,20.63
2022-08-05T01:10:51.633Z,20.58
2022-08-05T01:13:59.010Z,20.56
2022-08-05T01:16:26.219Z,20.47
2022-08-05T01:19:05.592Z,20.35
2022-08-05T01:22:08.015Z,20.40
2022-08-05T01:24:57.413Z,20.54
2022-08-05T01:27:55.621Z,20.59
2022-08-05T01:30:33.820Z,20.65
2022-08-05T01:33:08.330Z,20.61
2022-08-05T01:35:52.038Z,20.55
2022-08-05T01:38:24.694Z,20.51
2022-08-05T01:40:58.705Z,20.51
2022-08-05T01:43:28.958Z,20.35
2022-08-05T01:46:07.362Z,20.25
2022-08-05T01:48:49.472Z,20.27
2022-08-05T01:51:19.033Z,20.21
2022-08-05T01:53:56.899Z,20.08
2022-08-05T01:58:11.072Z,20.19
2022-08-05T01:59:22.039Z,20.27
2022-08-05T02:01:55.732Z,20.28
2022-08-05T02:04:28.677Z,20.35
2022-08-05T02:06:58.697Z,20.43
2022-08-05T02:09:27.096Z,20.35
2022-08-05T02:12:04.208Z,20.35
2022-08-05T02:14:34.503Z,20.44
2022-08-05T02:17:07.949Z,20.54
2022-08-05T02:19:49.294Z,20.63
2022-08-05T02:22:25.588Z,20.70
2022-08-05T02:25:00.064Z,20.75
2022-08-05T02:27:58.586Z,20.70
2022-08-05T02:30:19.083Z,20.72
2022-08-05T02:32:51.601Z,20.72
2022-08-05T02:35:27.933Z,20.73
2022-08-05T02:38:00.278Z,20.70
2022-08-05T02:40:31.150Z,20.62
2022-08-05T02:43:00.792Z,20.62
2022-08-05T02:45:52.738Z,20.69
2022-08-05T02:48:20.495Z,20.72
2022-08-05T02:50:59.614Z,20.61
2022-08-05T02:53:39.103Z,20.56
2022-08-05T02:56:09.321Z,20.54
2022-08-05T02:58:38.406Z,20.43
2022-08-05T03:01:16.078Z,20.44
2022-08-05T03:04:03.413Z,20.47
2022-08-05T03:06:56.562Z,20.49
2022-08-05T03:09:37.519Z,20.51
2022-08-05T03:12:08.098Z,20.37
2022-08-05T03:14:45.652Z,20.38
2022-08-05T03:17:14.026Z,20.44
2022-08-05T03:19:45.532Z,20.32
2022-08-05T03:22:16.388Z,20.35
2022-08-05T03:24:49.046Z,20.23
2022-08-05T03:27:19.389Z,20.27
2022-08-05T03:30:07.746Z,20.28
2022-08-05T03:32:35.547Z,20.17
2022-08-05T03:35:06.389Z,20.18
2022-08-05T03:37:40.999Z,20.26
2022-08-05T03:40:24.580Z,20.28
2022-08-05T03:43:01.474Z,20.27
2022-08-05T03:45:57.606Z,20.27
2022-08-05T03:48:27.007Z,20.29
2022-08-05T03:52:34.963Z,20.30
2022-08-05T03:55:53.869Z,20.24
2022-08-05T03:56:47.748Z,20.22
2022-08-05T03:59:20.933Z,20.21
2022-08-05T04:01:52.177Z,19.99
2022-08-05T04:04:22.286Z,19.88
2022-08-05T04:06:56.657Z,19.95
2022-08-05T04:09:26.542Z,20.08
2022-08-05T04:11:56.375Z,19.85
2022-08-05T04:14:30.147Z,19.77
2022-08-05T04:17:00.441Z,19.85
2022-08-05T04:19:29.030Z,19.87
2022-08-05T04:22:10.119Z,19.73
2022-08-05T04:24:44.076Z,19.71
2022-08-05T04:27:12.382Z,19.75
2022-08-05T04:29:40.391Z,19.78
2022-08-05T04:32:08.900Z,19.78
2022-08-05T04:34:42.679Z,19.59
2022-08-05T04:37:12.710Z,19.57
2022-08-05T04:39:40.758Z,19.60
2022-08-05T04:42:09.496Z,19.70
2022-08-05T04:44:37.459Z,19.75
2022-08-05T04:47:09.533Z,19.82
2022-08-05T04:50:02.599Z,19.88
2022-08-05T04:52:38.145Z,19.96
2022-08-05T04:55:14.497Z,19.97
2022-08-05T04:57:47.937Z,19.86
2022-08-05T05:00:23.617Z,19.88
2022-08-05T05:02:51.722Z,19.96
2022-08-05T05:05:28.247Z,19.91
2022-08-05T05:08:02.508Z,19.88
2022-08-05T05:10:33.300Z,19.85
2022-08-05T05:13:04.345Z,19.90
2022-08-05T05:15:57.395Z,19.97
2022-08-05T05:18:31.242Z,19.95
2022-08-05T05:21:03.282Z,19.81
2022-08-05T05:23:39.310Z,19.84
2022-08-05T05:26:28.835Z,19.68
2022-08-05T05:29:00.715Z,19.63
2022-08-05T05:31:35.765Z,19.51
2022-08-05T05:34:02.333Z,19.41
2022-08-05T05:36:30.956Z,19.38
2022-08-05T05:39:03.849Z,19.48
2022-08-05T05:41:40.528Z,19.50
2022-08-05T05:44:35.485Z,19.40
2022-08-05T05:46:58.342Z,19.32
2022-08-05T05:49:32.009Z,19.34
2022-08-05T05:52:01.266Z,19.42
2022-08-05T05:54:51.077Z,19.22
2022-08-05T05:57:19.838Z,19.26
2022-08-05T05:59:48.767Z,19.29
2022-08-05T06:02:17.224Z,19.22
2022-08-05T06:05:01.216Z,19.24
2022-08-05T06:07:41.548Z,19.18
2022-08-05T06:10:11.845Z,19.22
2022-08-05T06:12:42.256Z,19.15
2022-08-05T06:15:16.204Z,19.20
2022-08-05T06:17:53.324Z,19.24
2022-08-05T06:20:22.348Z,19.28
2022-08-05T06:22:50.755Z,19.24
2022-08-05T06:25:25.055Z,19.15
2022-08-05T06:28:11.728Z,19.05
2022-08-05T06:30:48.866Z,19.12
2022-08-05T06:33:19.031Z,19.09
2022-08-05T06:36:07.684Z,19.06
2022-08-05T06:38:36.831Z,18.96
2022-08-05T06:41:08.015Z,19.07
2022-08-05T06:43:59.012Z,19.15
2022-08-05T06:46:30.233Z,19.11
2022-08-05T06:48:59.348Z,19.07
2022-08-05T06:51:29.467Z,19.05
2022-08-05T06:53:58.965Z,19.10
2022-08-05T06:56:28.237Z,19.22
2022-08-05T06:58:56.126Z,19.27
2022-08-05T07:01:32.069Z,19.28
2022-08-05T07:04:01.340Z,19.34
2022-08-05T07:06:30.238Z,19.39
2022-08-05T07:08:59.532Z,19.36
2022-08-05T07:11:37.017Z,19.26
2022-08-05T07:14:29.717Z,19.22
2022-08-05T07:17:58.677Z,19.15
2022-08-05T07:22:36.917Z,19.05
2022-08-05T07:25:54.287Z,18.84
2022-08-05T07:28:03.921Z,18.89
2022-08-05T07:30:38.517Z,18.85
2022-08-05T07:33:10.658Z,18.80
2022-08-05T07:36:05.227Z,18.82
2022-08-05T07:38:34.054Z,18.70
2022-08-05T07:42:08.541Z,18.52
2022-08-05T07:43:57.461Z,18.70
2022-08-05T07:46:26.777Z,18.66
2022-08-05T07:49:04.306Z,18.72
2022-08-05T07:51:48.991Z,18.76
2022-08-05T07:54:26.586Z,18.80
2022-08-05T07:57:14.734Z,18.80
2022-08-05T07:59:48.988Z,18.80
2022-08-05T08:02:18.080Z,18.87
2022-08-05T08:04:47.707Z,18.94
2022-08-05T08:07:17.853Z,19.00
2022-08-05T08:09:46.110Z,19.02
2022-08-05T08:12:35.158Z,19.03
2022-08-05T08:15:04.608Z,18.99
2022-08-05T08:17:32.970Z,19.02
2022-08-05T08:20:43.889Z,18.99
2022-08-05T08:22:53.237Z,18.94
2022-08-05T08:25:27.158Z,18.92
2022-08-05T08:28:18.542Z,18.97
2022-08-05T08:31:01.547Z,19.00
2022-08-05T08:33:37.751Z,18.98
2022-08-05T08:36:38.218Z,19.06
2022-08-05T08:38:57.011Z,18.87
2022-08-05T08:41:52.215Z,18.80
2022-08-05T08:45:19.417Z,18.84
2022-08-05T08:47:46.879Z,18.95
2022-08-05T08:50:23.110Z,19.00
2022-08-05T08:52:51.755Z,19.10
2022-08-05T08:56:03.175Z,19.22
2022-08-05T08:58:12.981Z,19.34
2022-08-05T09:00:42.928Z,19.31
2022-08-05T09:03:16.316Z,19.38
2022-08-05T09:06:09.189Z,19.40
2022-08-05T09:08:40.037Z,19.50
2022-08-05T09:11:13.687Z,19.57
2022-08-05T09:14:00.680Z,19.61
2022-08-05T09:16:31.036Z,19.78
2022-08-05T09:19:00.234Z,19.88
2022-08-05T09:22:22.171Z,19.94
2022-08-05T09:24:17.798Z,20.13
2022-08-05T09:26:51.861Z,20.16
2022-08-05T09:29:20.200Z,20.22
2022-08-05T09:32:45.857Z,20.27
2022-08-05T09:34:55.322Z,20.24
2022-08-05T09:38:13.054Z,20.20
2022-08-05T09:40:31.302Z,20.23
2022-08-05T09:43:00.375Z,20.32
2022-08-05T09:46:07.570Z,20.43
2022-08-05T09:48:29.535Z,20.46
2022-08-05T09:51:00.668Z,20.77
2022-08-05T09:53:54.703Z,21.03
2022-08-05T09:56:26.249Z,21.24
2022-08-05T09:58:58.105Z,21.36
2022-08-05T10:01:32.047Z,21.43
2022-08-05T10:04:03.562Z,21.33
2022-08-05T10:06:34.070Z,21.46
2022-08-05T10:09:24.956Z,21.64
2022-08-05T10:12:30.053Z,21.53
2022-08-05T10:15:13.797Z,21.62
2022-08-05T10:17:54.486Z,21.55
2022-08-05T10:20:25.179Z,21.76
2022-08-05T10:22:54.568Z,22.14
2022-08-05T10:25:26.308Z,22.23
2022-08-05T10:28:13.166Z,22.38
2022-08-05T10:32:59.315Z,22.41
2022-08-05T10:33:35.183Z,22.28
2022-08-05T10:36:04.905Z,22.20
2022-08-05T10:38:36.195Z,22.23
2022-08-05T10:41:14.600Z,22.14
2022-08-05T10:43:56.577Z,22.30
2022-08-05T10:46:44.630Z,22.39
2022-08-05T10:49:16.766Z,22.34
2022-08-05T10:51:59.851Z,22.39
2022-08-05T10:54:56.431Z,22.63
2022-08-05T10:57:30.888Z,22.70
2022-08-05T11:00:19.850Z,22.62
2022-08-05T11:03:23.805Z,22.59
2022-08-05T11:06:15.213Z,22.77
2022-08-05T11:09:32.386Z,22.97
2022-08-05T11:12:50.347Z,22.65
2022-08-05T11:16:00.475Z,22.57
2022-08-05T11:18:26.977Z,22.56
2022-08-05T11:20:57.392Z,22.70
2022-08-05T11:24:03.181Z,22.81
2022-08-05T11:26:28.207Z,22.81
2022-08-05T11:29:06.757Z,22.85
2022-08-05T11:31:54.230Z,22.75
2022-08-05T11:34:50.985Z,22.86
2022-08-05T11:38:30.194Z,23.09
2022-08-05T11:41:34.701Z,23.19
2022-08-05T11:44:06.032Z,23.26
2022-08-05T11:47:10.225Z,23.41
2022-08-05T11:49:27.254Z,23.61
2022-08-05T11:51:57.706Z,23.80
2022-08-05T11:54:33.383Z,23.87
2022-08-05T11:57:08.372Z,23.97
2022-08-05T11:59:52.054Z,23.96
2022-08-05T12:02:31.963Z,23.88
2022-08-05T12:05:07.203Z,23.79
2022-08-05T12:08:08.521Z,23.78
2022-08-05T12:10:43.273Z,23.58
2022-08-05T12:13:15.799Z,23.44
2022-08-05T12:15:49.819Z,23.41
2022-08-05T12:18:20.619Z,22.99
2022-08-05T12:20:52.070Z,22.98
2022-08-05T12:23:19.793Z,22.98
2022-08-05T12:25:52.496Z,23.04
2022-08-05T12:28:37.123Z,23.11
2022-08-05T12:31:06.627Z,23.10
2022-08-05T12:33:38.793Z,23.14
2022-08-05T12:36:09.194Z,23.33
2022-08-05T12:38:39.610Z,23.44
2022-08-05T12:41:13.354Z,23.54
2022-08-05T12:43:52.695Z,23.70
2022-08-05T12:46:28.064Z,23.76
2022-08-05T12:49:13.263Z,23.83
2022-08-05T12:52:14.355Z,23.91
2022-08-05T12:54:34.067Z,23.84
2022-08-05T12:57:04.448Z,23.75
2022-08-05T13:00:08.715Z,23.81
2022-08-05T13:02:33.011Z,23.99
2022-08-05T13:05:07.605Z,23.89
2022-08-05T13:07:59.547Z,23.92
2022-08-05T13:10:24.158Z,23.82
2022-08-05T13:12:58.516Z,23.66
2022-08-05T13:15:41.076Z,23.62
2022-08-05T13:18:10.507Z,23.54
2022-08-05T13:20:40.445Z,23.39
2022-08-05T13:23:08.599Z,23.45
2022-08-05T13:25:52.744Z,23.48
2022-08-05T13:28:24.115Z,23.60
2022-08-05T13:30:53.097Z,23.60
2022-08-05T13:34:23.041Z,23.63
2022-08-05T13:36:11.125Z,23.72
2022-08-05T13:38:43.061Z,23.70
2022-08-05T13:41:11.268Z,23.64
2022-08-05T13:43:44.247Z,23.48
2022-08-05T13:46:37.781Z,23.65
2022-08-05T13:49:11.516Z,23.76
2022-08-05T13:51:46.148Z,23.81
2022-08-05T13:54:15.892Z,23.96
2022-08-05T13:56:51.235Z,24.02
2022-08-05T13:59:24.070Z,23.80
2022-08-05T14:01:56.796Z,23.94
2022-08-05T14:04:43.860Z,23.84
2022-08-05T14:07:25.439Z,23.53
2022-08-05T14:10:12.048Z,23.47
2022-08-05T14:12:42.679Z,23.62
2022-08-05T14:16:08.517Z,23.73
2022-08-05T14:18:00.738Z,23.80
2022-08-05T14:20:29.454Z,23.80
2022-08-05T14:22:58.704Z,23.98
2022-08-05T14:25:28.090Z,24.01
2022-08-05T14:27:56.744Z,24.27
2022-08-05T14:30:27.982Z,24.57
2022-08-05T14:32:56.702Z,24.62
2022-08-05T14:35:49.921Z,24.57
2022-08-05T14:38:31.833Z,24.38
2022-08-05T14:41:06.249Z,24.45
2022-08-05T14:43:57.619Z,24.37
2022-08-05T14:46:28.410Z,24.27
2022-08-05T14:48:57.797Z,24.55
2022-08-05T14:51:30.815Z,24.67
2022-08-05T14:54:27.919Z,24.72
2022-08-05T14:56:48.804Z,24.72
2022-08-05T14:59:21.211Z,24.56
2022-08-05T15:01:49.914Z,24.47
2022-08-05T15:04:20.542Z,24.36
2022-08-05T15:06:51.029Z,24.09
2022-08-05T15:09:54.106Z,23.88
2022-08-05T15:12:11.671Z,23.76
2022-08-05T15:14:49.609Z,23.62
2022-08-05T15:17:47.302Z,23.71
2022-08-05T15:20:15.670Z,23.87
2022-08-05T15:22:52.134Z,23.90
2022-08-05T15:25:51.501Z,23.71
2022-08-05T15:28:13.386Z,23.65
2022-08-05T15:30:43.451Z,23.74
2022-08-05T15:33:11.964Z,23.63
2022-08-05T15:35:45.473Z,23.62
2022-08-05T15:38:33.952Z,23.56
2022-08-05T15:41:23.358Z,23.55
2022-08-05T15:43:50.849Z,23.65
2022-08-05T15:46:20.435Z,23.76
2022-08-05T15:48:58.700Z,23.89
2022-08-05T15:52:03.982Z,23.78
2022-08-05T15:54:17.952Z,23.98
2022-08-05T15:56:47.087Z,24.05
2022-08-05T15:59:21.806Z,24.15
2022-08-05T16:01:52.901Z,24.18
2022-08-05T16:04:25.409Z,24.24
2022-08-05T16:06:54.027Z,24.17
2022-08-05T16:09:23.593Z,23.92
2022-08-05T16:11:53.801Z,23.89
2022-08-05T16:14:22.282Z,24.09
2022-08-05T16:16:50.990Z,24.04
2022-08-05T16:20:03.307Z,23.93
2022-08-05T16:22:10.612Z,23.82
2022-08-05T16:24:41.626Z,23.77
2022-08-05T16:27:46.934Z,23.73
2022-08-05T16:30:25.593Z,23.67
2022-08-05T16:32:54.339Z,23.50
2022-08-05T16:35:27.625Z,23.33
2022-08-05T16:38:03.553Z,23.33
2022-08-05T16:40:51.846Z,23.29
2022-08-05T16:43:25.594Z,23.12
2022-08-05T16:46:03.762Z,23.09
2022-08-05T16:48:38.946Z,23.14
2022-08-05T16:51:09.235Z,23.18
2022-08-05T16:54:03.991Z,23.07
2022-08-05T16:56:27.198Z,23.10
2022-08-05T16:58:56.689Z,23.18
2022-08-05T17:01:24.892Z,23.14
2022-08-05T17:03:52.818Z,23.10
2022-08-05T17:06:20.931Z,23.08
2022-08-05T17:08:54.473Z,23.08
2022-08-05T17:11:25.105Z,23.09
2022-08-05T17:13:54.700Z,23.13
2022-08-05T17:16:36.433Z,23.10
2022-08-05T17:19:07.313Z,23.10
2022-08-05T17:21:37.247Z,22.90
2022-08-05T17:24:18.481Z,22.89
2022-08-05T17:26:55.568Z,23.00
2022-08-05T17:29:32.816Z,22.83
2022-08-05T17:32:03.310Z,22.92
2022-08-05T17:34:32.260Z,22.86
2022-08-05T17:37:04.449Z,22.83
2022-08-05T17:39:33.983Z,22.75
2022-08-05T17:42:19.137Z,22.67
2022-08-05T17:44:50.271Z,22.70
2022-08-05T17:47:22.122Z,22.53
2022-08-05T17:50:00.117Z,22.60
2022-08-05T17:52:32.453Z,22.63
2022-08-05T17:55:00.606Z,22.74
2022-08-05T17:57:31.327Z,22.83
2022-08-05T18:00:03.822Z,22.56
2022-08-05T18:02:35.554Z,22.24
2022-08-05T18:05:07.552Z,22.30
2022-08-05T18:07:41.781Z,22.35
2022-08-05T18:10:11.594Z,22.36
2022-08-05T18:12:48.373Z,22.25
2022-08-05T18:15:16.251Z,22.32
2022-08-05T18:18:01.596Z,22.22
2022-08-05T18:20:32.681Z,22.15
2022-08-05T18:23:11.417Z,22.13
2022-08-05T18:25:44.040Z,22.02
2022-08-05T18:28:16.613Z,21.93
2022-08-05T18:30:45.299Z,21.98
2022-08-05T18:33:14.784Z,21.96
2022-08-05T18:35:49.388Z,22.05
2022-08-05T18:38:19.384Z,22.07
2022-08-05T18:41:53.267Z,22.14
2022-08-05T18:43:43.224Z,22.17
2022-08-05T18:46:20.294Z,22.21
2022-08-05T18:48:52.304Z,22.02
2022-08-05T18:52:02.739Z,21.76
2022-08-05T18:54:25.529Z,21.83
2022-08-05T18:56:53.316Z,21.86
2022-08-05T18:59:42.840Z,21.62
2022-08-05T19:02:11.254Z,21.54
2022-08-05T19:05:02.671Z,21.42
2022-08-05T19:07:45.578Z,21.33
2022-08-05T19:10:14.905Z,21.34
2022-08-05T19:12:43.308Z,21.27
2022-08-05T19:15:56.788Z,21.19
2022-08-05T19:18:10.213Z,21.00
2022-08-05T19:20:46.949Z,21.03
2022-08-05T19:23:22.649Z,20.95
2022-08-05T19:26:03.227Z,20.91
2022-08-05T19:28:32.882Z,20.68
2022-08-05T19:31:01.356Z,20.63
2022-08-05T19:33:36.169Z,20.71
2022-08-05T19:36:07.019Z,20.68
2022-08-05T19:38:35.661Z,20.62
2022-08-05T19:41:07.037Z,20.62
2022-08-05T19:44:05.653Z,20.66
2022-08-05T19:46:30.305Z,20.71
2022-08-05T19:49:01.227Z,20.63
2022-08-05T19:52:05.390Z,20.56
2022-08-05T19:54:27.165Z,20.52
2022-08-05T19:56:59.982Z,20.41
2022-08-05T19:59:55.306Z,20.39
2022-08-05T20:02:18.886Z,20.39
2022-08-05T20:04:48.485Z,20.26
2022-08-05T20:07:48.826Z,20.26
2022-08-05T20:10:11.804Z,20.25
2022-08-05T20:12:46.023Z,20.25
2022-08-05T20:15:15.899Z,20.26
2022-08-05T20:18:10.750Z,20.25
2022-08-05T20:20:55.822Z,20.24
2022-08-05T20:23:39.873Z,20.20
2022-08-05T20:26:17.189Z,20.11
2022-08-05T20:28:47.938Z,19.97
2022-08-05T20:31:16.475Z,19.96
2022-08-05T20:33:45.157Z,19.87
2022-08-05T20:36:14.338Z,19.78
2022-08-05T20:38:54.524Z,19.51
2022-08-05T20:41:27.404Z,19.59
2022-08-05T20:44:17.551Z,19.60
2022-08-05T20:46:47.538Z,19.56
2022-08-05T20:49:24.213Z,19.52
2022-08-05T20:51:54.278Z,19.23
2022-08-05T20:54:25.314Z,19.28
2022-08-05T20:56:53.229Z,19.39
2022-08-05T20:59:26.466Z,19.31
2022-08-05T21:01:57.974Z,19.31
2022-08-05T21:04:26.906Z,19.34
2022-08-05T21:06:55.822Z,19.31
2022-08-05T21:09:25.083Z,19.27
2022-08-05T21:12:09.748Z,19.23
2022-08-05T21:14:38.840Z,19.21
2022-08-05T21:17:06.809Z,19.19
2022-08-05T21:19:46.939Z,19.10
2022-08-05T21:22:18.332Z,19.00
2022-08-05T21:24:51.908Z,19.01
2022-08-05T21:27:20.655Z,19.02
2022-08-05T21:29:54.046Z,18.97
2022-08-05T21:32:23.441Z,18.72
2022-08-05T21:34:56.045Z,18.71
2022-08-05T21:37:41.472Z,18.54
2022-08-05T21:40:14.189Z,18.62
2022-08-05T21:42:45.642Z,18.66
2022-08-05T21:45:24.271Z,18.52
2022-08-05T21:47:57.084Z,18.59
2022-08-05T21:50:26.048Z,18.58
2022-08-05T21:52:58.915Z,18.59
2022-08-05T21:56:01.758Z,18.61
2022-08-05T21:58:24.805Z,18.58
2022-08-05T22:00:58.620Z,18.51
2022-08-05T22:03:48.634Z,18.47
2022-08-05T22:06:14.178Z,18.36
2022-08-05T22:08:42.450Z,18.33
2022-08-05T22:11:15.613Z,18.29
2022-08-05T22:14:33.837Z,18.29
2022-08-05T22:16:42.080Z,18.27
2022-08-05T22:20:02.075Z,18.24
2022-08-05T22:22:08.732Z,18.20
2022-08-05T22:24:55.846Z,18.25
2022-08-05T22:28:09.061Z,18.24
2022-08-05T22:30:32.157Z,18.20
2022-08-05T22:33:03.469Z,18.13
2022-08-05T22:35:47.900Z,18.13
2022-08-05T22:38:16.996Z,18.11
2022-08-05T22:40:50.011Z,18.13
2022-08-05T22:43:36.872Z,18.09
2022-08-05T22:46:13.206Z,17.94
2022-08-05T22:48:50.865Z,17.95
2022-08-05T22:51:22.979Z,17.91
2022-08-05T22:53:57.669Z,17.89
2022-08-05T22:56:30.703Z,17.85
2022-08-05T22:59:03.129Z,17.83
2022-08-05T23:02:03.815Z,17.79
2022-08-05T23:04:21.126Z,17.76
2022-08-05T23:06:49.005Z,17.73
2022-08-05T23:09:27.308Z,17.69
2022-08-05T23:12:05.582Z,17.62
2022-08-05T23:14:35.256Z,17.59
2022-08-05T23:17:24.215Z,17.54
2022-08-05T23:20:02.416Z,17.47
2022-08-05T23:22:30.815Z,17.46
2022-08-05T23:24:59.262Z,17.44
2022-08-05T23:27:28.839Z,17.39
2022-08-05T23:30:01.707Z,17.32
2022-08-05T23:32:35.817Z,17.28
2022-08-05T23:35:03.618Z,17.24
2022-08-05T23:37:34.318Z,17.27
2022-08-05T23:40:07.872Z,17.25
2022-08-05T23:42:37.828Z,17.22
2022-08-05T23:45:14.082Z,17.14
2022-08-05T23:47:47.667Z,17.09
2022-08-05T23:50:17.143Z,17.04
2022-08-05T23:52:50.482Z,17.01
2022-08-05T23:55:19.852Z,16.95
2022-08-05T23:57:52.721Z,16.90
